sensor_id;sensor_type;location;lat;lon;timestamp;pressure;altitude;pressure_sealevel;temperature;humidity
19676;BME280;39539;52.202;9.876;2023-01-29T00:01:04;102044.72;;;-0.60;100.00
19676;BME280;39539;52.202;9.876;2023-01-29T00:03:29;102039.50;;;-0.60;100.00
19676;BME280;39539;52.202;9.876;2023-01-29T00:05:55;102038.03;;;-0.64;100.00
19676;BME280;39539;52.202;9.876;2023-01-29T00:08:20;102041.78;;;-0.68;100.00
19676;BME280;39539;52.202;9.876;2023-01-29T00:10:46;102030.41;;;-0.67;100.00
19676;BME280;39539;52.202;9.876;2023-01-29T00:13:12;102017.56;;;-0.70;100.00
19676;BME280;39539;52.202;9.876;2023-01-29T00:15:37;102019.34;;;-0.71;100.00
19676;BME280;39539;52.202;9.876;2023-01-29T00:18:04;102020.19;;;-0.70;100.00
19676;BME280;39539;52.202;9.876;2023-01-29T00:20:30;102030.84;;;-0.60;100.00
19676;BME280;39539;52.202;9.876;2023-01-29T00:22:55;102026.38;;;-0.58;100.00
19676;BME280;39539;52.202;9.876;2023-01-29T00:25:20;102030.75;;;-0.59;100.00
19676;BME280;39539;52.202;9.876;2023-01-29T00:27:46;102024.38;;;-0.55;100.00
19676;BME280;39539;52.202;9.876;2023-01-29T00:30:11;102004.50;;;-0.70;100.00
19676;BME280;39539;52.202;9.876;2023-01-29T00:32:40;102017.03;;;-0.62;100.00
19676;BME280;39539;52.202;9.876;2023-01-29T00:35:06;102019.16;;;-0.55;100.00
19676;BME280;39539;52.202;9.876;2023-01-29T00:37:32;102001.84;;;-0.56;100.00
19676;BME280;39539;52.202;9.876;2023-01-29T00:39:58;102021.28;;;-0.47;100.00
19676;BME280;39539;52.202;9.876;2023-01-29T00:42:24;102015.00;;;-0.44;100.00
19676;BME280;39539;52.202;9.876;2023-01-29T00:45:09;102007.47;;;-0.49;100.00
19676;BME280;39539;52.202;9.876;2023-01-29T00:47:34;102004.56;;;-0.44;100.00
19676;BME280;39539;52.202;9.876;2023-01-29T00:50:02;102008.00;;;-0.44;100.00
19676;BME280;39539;52.202;9.876;2023-01-29T00:52:28;102003.09;;;-0.49;100.00
19676;BME280;39539;52.202;9.876;2023-01-29T00:54:58;102011.78;;;-0.48;100.00
19676;BME280;39539;52.202;9.876;2023-01-29T00:57:25;101999.97;;;-0.54;100.00
19676;BME280;39539;52.202;9.876;2023-01-29T00:59:51;102009.13;;;-0.61;100.00
19676;BME280;39539;52.202;9.876;2023-01-29T01:02:17;102008.91;;;-0.71;100.00
19676;BME280;39539;52.202;9.876;2023-01-29T01:05:01;102009.41;;;-0.78;100.00
19676;BME280;39539;52.202;9.876;2023-01-29T01:07:28;102014.63;;;-0.78;100.00
19676;BME280;39539;52.202;9.876;2023-01-29T01:09:54;102011.47;;;-0.83;100.00
19676;BME280;39539;52.202;9.876;2023-01-29T01:12:38;102009.44;;;-0.93;100.00
19676;BME280;39539;52.202;9.876;2023-01-29T01:15:04;102023.63;;;-0.97;100.00
19676;BME280;39539;52.202;9.876;2023-01-29T01:17:30;102015.97;;;-1.00;100.00
19676;BME280;39539;52.202;9.876;2023-01-29T01:19:55;102004.28;;;-1.07;100.00
19676;BME280;39539;52.202;9.876;2023-01-29T01:22:20;102006.06;;;-1.07;100.00
19676;BME280;39539;52.202;9.876;2023-01-29T01:24:46;101993.28;;;-1.12;100.00
19676;BME280;39539;52.202;9.876;2023-01-29T01:27:12;101991.94;;;-1.05;100.00
19676;BME280;39539;52.202;9.876;2023-01-29T01:29:37;101993.84;;;-1.07;100.00
19676;BME280;39539;52.202;9.876;2023-01-29T01:32:03;101988.06;;;-1.12;100.00
19676;BME280;39539;52.202;9.876;2023-01-29T01:34:29;101994.31;;;-1.15;100.00
19676;BME280;39539;52.202;9.876;2023-01-29T01:36:54;101988.06;;;-1.12;100.00
19676;BME280;39539;52.202;9.876;2023-01-29T01:39:20;101965.72;;;-1.16;100.00
19676;BME280;39539;52.202;9.876;2023-01-29T01:41:46;101972.81;;;-1.18;100.00
19676;BME280;39539;52.202;9.876;2023-01-29T01:45:06;101957.78;;;-1.27;100.00
19676;BME280;39539;52.202;9.876;2023-01-29T01:47:39;101952.19;;;-1.36;100.00
19676;BME280;39539;52.202;9.876;2023-01-29T01:50:20;101958.25;;;-1.35;100.00
19676;BME280;39539;52.202;9.876;2023-01-29T01:52:52;101959.66;;;-1.44;100.00
19676;BME280;39539;52.202;9.876;2023-01-29T01:55:23;101956.78;;;-1.53;100.00
19676;BME280;39539;52.202;9.876;2023-01-29T01:57:54;101937.75;;;-1.68;100.00
19676;BME280;39539;52.202;9.876;2023-01-29T02:00:23;101955.72;;;-1.64;100.00
19676;BME280;39539;52.202;9.876;2023-01-29T02:02:50;101943.41;;;-1.62;100.00
19676;BME280;39539;52.202;9.876;2023-01-29T02:05:35;101945.47;;;-1.67;100.00
19676;BME280;39539;52.202;9.876;2023-01-29T02:09:04;101955.72;;;-1.64;100.00
19676;BME280;39539;52.202;9.876;2023-01-29T02:11:49;101954.69;;;-1.61;100.00
19676;BME280;39539;52.202;9.876;2023-01-29T02:14:15;101957.75;;;-1.69;100.00
19676;BME280;39539;52.202;9.876;2023-01-29T02:16:41;101963.16;;;-1.72;100.00
19676;BME280;39539;52.202;9.876;2023-01-29T02:19:17;101970.69;;;-1.67;100.00
19676;BME280;39539;52.202;9.876;2023-01-29T02:24:43;101972.56;;;-1.69;100.00
19676;BME280;39539;52.202;9.876;2023-01-29T02:27:18;101976.28;;;-1.73;100.00
19676;BME280;39539;52.202;9.876;2023-01-29T02:29:55;101980.28;;;-1.68;100.00
19676;BME280;39539;52.202;9.876;2023-01-29T02:35:29;101989.59;;;-1.64;100.00
19676;BME280;39539;52.202;9.876;2023-01-29T02:41:01;101998.41;;;-1.52;100.00
19676;BME280;39539;52.202;9.876;2023-01-29T02:46:15;102009.53;;;-1.21;100.00
19676;BME280;39539;52.202;9.876;2023-01-29T02:48:59;102011.66;;;-1.14;100.00
19676;BME280;39539;52.202;9.876;2023-01-29T02:51:39;102011.91;;;-1.04;100.00
19676;BME280;39539;52.202;9.876;2023-01-29T02:54:15;102004.38;;;-1.08;100.00
19676;BME280;39539;52.202;9.876;2023-01-29T02:56:54;102006.50;;;-1.01;100.00
19676;BME280;39539;52.202;9.876;2023-01-29T02:59:26;102009.88;;;-0.86;100.00
19676;BME280;39539;52.202;9.876;2023-01-29T03:02:09;102017.44;;;-0.81;100.00
19676;BME280;39539;52.202;9.876;2023-01-29T03:04:41;102010.50;;;-0.82;100.00
19676;BME280;39539;52.202;9.876;2023-01-29T03:07:20;102015.34;;;-0.76;100.00
19676;BME280;39539;52.202;9.876;2023-01-29T03:10:30;102003.69;;;-0.71;100.00
19676;BME280;39539;52.202;9.876;2023-01-29T03:13:18;102016.00;;;-0.60;100.00
19676;BME280;39539;52.202;9.876;2023-01-29T03:15:48;101999.84;;;-0.65;100.00
19676;BME280;39539;52.202;9.876;2023-01-29T03:18:27;101988.16;;;-0.59;100.00
19676;BME280;39539;52.202;9.876;2023-01-29T03:21:01;101979.97;;;-0.68;100.00
19676;BME280;39539;52.202;9.876;2023-01-29T03:23:31;101977.75;;;-0.74;100.00
19676;BME280;39539;52.202;9.876;2023-01-29T03:26:19;101986.16;;;-0.56;100.00
19676;BME280;39539;52.202;9.876;2023-01-29T03:29:06;101975.19;;;-0.61;100.00
19676;BME280;39539;52.202;9.876;2023-01-29T03:31:52;101961.19;;;-0.60;100.00
19676;BME280;39539;52.202;9.876;2023-01-29T03:34:35;101969.97;;;-0.61;100.00
19676;BME280;39539;52.202;9.876;2023-01-29T03:39:35;101979.25;;;-0.57;100.00
19676;BME280;39539;52.202;9.876;2023-01-29T03:42:14;101986.50;;;-0.48;100.00
19676;BME280;39539;52.202;9.876;2023-01-29T03:47:48;101971.75;;;-0.49;100.00
19676;BME280;39539;52.202;9.876;2023-01-29T03:50:45;101979.28;;;-0.44;100.00
19676;BME280;39539;52.202;9.876;2023-01-29T03:59:41;101944.19;;;-0.53;100.00
19676;BME280;39539;52.202;9.876;2023-01-29T04:02:14;101951.88;;;-0.51;100.00
19676;BME280;39539;52.202;9.876;2023-01-29T04:04:45;101948.91;;;-0.45;100.00
19676;BME280;39539;52.202;9.876;2023-01-29T04:07:13;101944.78;;;-0.49;100.00
19676;BME280;39539;52.202;9.876;2023-01-29T04:09:55;101949.59;;;-0.43;100.00
19676;BME280;39539;52.202;9.876;2023-01-29T04:12:27;101935.31;;;-0.50;100.00
19676;BME280;39539;52.202;9.876;2023-01-29T04:14:56;101936.22;;;-0.51;100.00
19676;BME280;39539;52.202;9.876;2023-01-29T04:17:27;101914.91;;;-0.58;100.00
19676;BME280;39539;52.202;9.876;2023-01-29T04:19:58;101914.50;;;-0.64;100.00
19676;BME280;39539;52.202;9.876;2023-01-29T04:22:33;101909.28;;;-0.64;100.00
19676;BME280;39539;52.202;9.876;2023-01-29T04:25:02;101908.97;;;-0.60;100.00
19676;BME280;39539;52.202;9.876;2023-01-29T04:28:03;101900.50;;;-0.63;100.00
19676;BME280;39539;52.202;9.876;2023-01-29T04:31:05;101912.00;;;-0.53;100.00
19676;BME280;39539;52.202;9.876;2023-01-29T04:41:39;101887.69;;;-0.54;100.00
19676;BME280;39539;52.202;9.876;2023-01-29T04:44:17;101879.41;;;-0.48;100.00
19676;BME280;39539;52.202;9.876;2023-01-29T04:46:52;101878.78;;;-0.51;100.00
19676;BME280;39539;52.202;9.876;2023-01-29T04:52:16;101850.56;;;-0.46;100.00
19676;BME280;39539;52.202;9.876;2023-01-29T04:57:46;101857.06;;;-0.52;100.00
19676;BME280;39539;52.202;9.876;2023-01-29T05:00:27;101855.41;;;-0.53;100.00
19676;BME280;39539;52.202;9.876;2023-01-29T05:02:55;101853.53;;;-0.51;100.00
19676;BME280;39539;52.202;9.876;2023-01-29T05:05:20;101859.97;;;-0.43;100.00
19676;BME280;39539;52.202;9.876;2023-01-29T05:07:46;101863.13;;;-0.38;100.00
19676;BME280;39539;52.202;9.876;2023-01-29T05:10:14;101856.84;;;-0.36;100.00
19676;BME280;39539;52.202;9.876;2023-01-29T05:12:45;101856.22;;;-0.39;100.00
19676;BME280;39539;52.202;9.876;2023-01-29T05:15:16;101856.41;;;-0.30;100.00
19676;BME280;39539;52.202;9.876;2023-01-29T05:17:43;101866.03;;;-0.30;100.00
19676;BME280;39539;52.202;9.876;2023-01-29T05:20:10;101856.41;;;-0.30;100.00
19676;BME280;39539;52.202;9.876;2023-01-29T05:22:38;101855.16;;;-0.24;100.00
19676;BME280;39539;52.202;9.876;2023-01-29T05:25:20;101861.81;;;-0.20;100.00
19676;BME280;39539;52.202;9.876;2023-01-29T05:27:47;101855.81;;;-0.33;100.00
19676;BME280;39539;52.202;9.876;2023-01-29T05:30:37;101857.47;;;-0.32;100.00
19676;BME280;39539;52.202;9.876;2023-01-29T05:33:04;101847.00;;;-0.32;100.00
19676;BME280;39539;52.202;9.876;2023-01-29T05:35:35;101847.75;;;-0.30;100.00
19676;BME280;39539;52.202;9.876;2023-01-29T05:38:00;101852.75;;;-0.27;100.00
19676;BME280;39539;52.202;9.876;2023-01-29T05:40:26;101850.16;;;-0.27;100.00
19676;BME280;39539;52.202;9.876;2023-01-29T05:42:51;101842.84;;;-0.35;100.00
19676;BME280;39539;52.202;9.876;2023-01-29T05:45:17;101855.81;;;-0.33;100.00
19676;BME280;39539;52.202;9.876;2023-01-29T05:47:43;101875.09;;;-0.23;100.00
19676;BME280;39539;52.202;9.876;2023-01-29T05:50:09;101872.00;;;-0.28;100.00
19676;BME280;39539;52.202;9.876;2023-01-29T05:52:34;101867.69;;;-0.29;100.00
19676;BME280;39539;52.202;9.876;2023-01-29T05:55:00;101864.66;;;-0.23;100.00
19676;BME280;39539;52.202;9.876;2023-01-29T05:57:25;101854.53;;;-0.28;100.00
19676;BME280;39539;52.202;9.876;2023-01-29T05:59:50;101868.94;;;-0.22;100.00
19676;BME280;39539;52.202;9.876;2023-01-29T06:02:16;101876.06;;;-0.24;100.00
19676;BME280;39539;52.202;9.876;2023-01-29T06:04:41;101854.22;;;-0.36;100.00
19676;BME280;39539;52.202;9.876;2023-01-29T06:07:06;101877.09;;;-0.27;100.00
19676;BME280;39539;52.202;9.876;2023-01-29T06:09:32;101856.00;;;-0.36;100.00
19676;BME280;39539;52.202;9.876;2023-01-29T06:11:57;101878.13;;;-0.29;100.00
19676;BME280;39539;52.202;9.876;2023-01-29T06:14:22;101889.41;;;-0.29;100.00
19676;BME280;39539;52.202;9.876;2023-01-29T06:16:48;101882.75;;;-0.33;100.00
19676;BME280;39539;52.202;9.876;2023-01-29T06:19:16;101875.22;;;-0.37;100.00
19676;BME280;39539;52.202;9.876;2023-01-29T06:21:42;101883.69;;;-0.34;100.00
19676;BME280;39539;52.202;9.876;2023-01-29T06:24:08;101880.56;;;-0.39;100.00
19676;BME280;39539;52.202;9.876;2023-01-29T06:26:33;101873.38;;;-0.48;100.00
19676;BME280;39539;52.202;9.876;2023-01-29T06:28:58;101872.13;;;-0.42;100.00
19676;BME280;39539;52.202;9.876;2023-01-29T06:31:24;101868.97;;;-0.60;100.00
19676;BME280;39539;52.202;9.876;2023-01-29T06:33:49;101853.50;;;-0.63;100.00
19676;BME280;39539;52.202;9.876;2023-01-29T06:36:14;101859.03;;;-0.68;100.00
19676;BME280;39539;52.202;9.876;2023-01-29T06:38:40;101864.56;;;-0.60;100.00
19676;BME280;39539;52.202;9.876;2023-01-29T06:41:13;101858.97;;;-0.54;100.00
19676;BME280;39539;52.202;9.876;2023-01-29T06:43:43;101862.06;;;-0.49;100.00
19676;BME280;39539;52.202;9.876;2023-01-29T06:46:09;101875.13;;;-0.49;100.00
19676;BME280;39539;52.202;9.876;2023-01-29T06:48:34;101867.94;;;-0.45;100.00
19676;BME280;39539;52.202;9.876;2023-01-29T06:51:04;101868.56;;;-0.41;100.00
19676;BME280;39539;52.202;9.876;2023-01-29T06:53:32;101873.34;;;-0.35;100.00
19676;BME280;39539;52.202;9.876;2023-01-29T06:55:58;101872.72;;;-0.39;100.00
19676;BME280;39539;52.202;9.876;2023-01-29T06:58:23;101867.38;;;-0.37;100.00
19676;BME280;39539;52.202;9.876;2023-01-29T07:00:49;101866.25;;;-0.33;100.00
19676;BME280;39539;52.202;9.876;2023-01-29T07:03:14;101865.91;;;-0.29;100.00
19676;BME280;39539;52.202;9.876;2023-01-29T07:05:40;101865.91;;;-0.29;100.00
19676;BME280;39539;52.202;9.876;2023-01-29T07:08:05;101894.44;;;-0.26;100.00
19676;BME280;39539;52.202;9.876;2023-01-29T07:10:31;101899.13;;;-0.18;100.00
19676;BME280;39539;52.202;9.876;2023-01-29T07:12:58;101893.00;;;-0.17;100.00
19676;BME280;39539;52.202;9.876;2023-01-29T07:15:23;101901.31;;;-0.12;100.00
19676;BME280;39539;52.202;9.876;2023-01-29T07:17:59;101906.75;;;-0.15;100.00
19676;BME280;39539;52.202;9.876;2023-01-29T07:20:27;101915.56;;;-0.16;100.00
19676;BME280;39539;52.202;9.876;2023-01-29T07:22:53;101916.28;;;-0.14;100.00
19676;BME280;39539;52.202;9.876;2023-01-29T07:25:19;101905.09;;;-0.16;100.00
19676;BME280;39539;52.202;9.876;2023-01-29T07:27:45;101900.63;;;-0.14;100.00
19676;BME280;39539;52.202;9.876;2023-01-29T07:30:11;101910.09;;;-0.13;100.00
19676;BME280;39539;52.202;9.876;2023-01-29T07:32:36;101903.00;;;-0.11;100.00
19676;BME280;39539;52.202;9.876;2023-01-29T07:35:01;101888.16;;;-0.10;100.00
19676;BME280;39539;52.202;9.876;2023-01-29T07:37:27;101887.13;;;-0.08;100.00
19676;BME280;39539;52.202;9.876;2023-01-29T07:39:52;101893.38;;;-0.10;100.00
19676;BME280;39539;52.202;9.876;2023-01-29T07:42:17;101879.59;;;-0.12;100.00
19676;BME280;39539;52.202;9.876;2023-01-29T07:44:43;101866.66;;;-0.14;100.00
19676;BME280;39539;52.202;9.876;2023-01-29T07:47:08;101858.47;;;-0.09;100.00
19676;BME280;39539;52.202;9.876;2023-01-29T07:49:33;101841.13;;;-0.23;100.00
19676;BME280;39539;52.202;9.876;2023-01-29T07:51:59;101861.59;;;-0.04;100.00
19676;BME280;39539;52.202;9.876;2023-01-29T07:54:24;101856.50;;;-0.06;100.00
19676;BME280;39539;52.202;9.876;2023-01-29T07:56:49;101849.56;;;-0.07;100.00
19676;BME280;39539;52.202;9.876;2023-01-29T07:59:15;101843.72;;;-0.10;100.00
19676;BME280;39539;52.202;9.876;2023-01-29T08:01:41;101844.69;;;-0.11;100.00
19676;BME280;39539;52.202;9.876;2023-01-29T08:04:06;101841.94;;;-0.10;100.00
19676;BME280;39539;52.202;9.876;2023-01-29T08:06:31;101829.63;;;-0.08;100.00
19676;BME280;39539;52.202;9.876;2023-01-29T08:08:57;101793.50;;;-0.27;100.00
19676;BME280;39539;52.202;9.876;2023-01-29T08:11:23;101802.25;;;-0.15;100.00
19676;BME280;39539;52.202;9.876;2023-01-29T08:13:49;101790.22;;;-0.05;100.00
19676;BME280;39539;52.202;9.876;2023-01-29T08:16:14;101803.88;;;-0.01;100.00
19676;BME280;39539;52.202;9.876;2023-01-29T08:18:40;101800.00;;;0.05;100.00
19676;BME280;39539;52.202;9.876;2023-01-29T08:21:10;101801.66;;;0.06;100.00
19676;BME280;39539;52.202;9.876;2023-01-29T08:23:35;101806.41;;;0.01;100.00
19676;BME280;39539;52.202;9.876;2023-01-29T08:26:02;101817.13;;;0.09;100.00
19676;BME280;39539;52.202;9.876;2023-01-29T08:28:27;101804.72;;;-0.01;100.00
19676;BME280;39539;52.202;9.876;2023-01-29T08:30:53;101796.78;;;0.01;100.00
19676;BME280;39539;52.202;9.876;2023-01-29T08:33:19;101807.59;;;0.08;100.00
19676;BME280;39539;52.202;9.876;2023-01-29T08:35:49;101810.63;;;0.14;100.00
19676;BME280;39539;52.202;9.876;2023-01-29T08:38:15;101827.66;;;0.20;100.00
19676;BME280;39539;52.202;9.876;2023-01-29T08:40:41;101809.56;;;0.17;100.00
19676;BME280;39539;52.202;9.876;2023-01-29T08:43:07;101805.50;;;0.13;100.00
19676;BME280;39539;52.202;9.876;2023-01-29T08:45:34;101800.28;;;0.13;100.00
19676;BME280;39539;52.202;9.876;2023-01-29T08:48:00;101820.19;;;0.27;100.00
19676;BME280;39539;52.202;9.876;2023-01-29T08:50:26;101816.03;;;0.24;100.00
19676;BME280;39539;52.202;9.876;2023-01-29T08:52:56;101815.47;;;0.32;100.00
19676;BME280;39539;52.202;9.876;2023-01-29T08:55:23;101821.56;;;0.19;100.00
19676;BME280;39539;52.202;9.876;2023-01-29T08:57:48;101810.97;;;0.10;100.00
19676;BME280;39539;52.202;9.876;2023-01-29T09:00:14;101810.19;;;0.20;100.00
19676;BME280;39539;52.202;9.876;2023-01-29T09:02:39;101809.84;;;0.25;100.00
19676;BME280;39539;52.202;9.876;2023-01-29T09:05:05;101812.72;;;0.33;100.00
19676;BME280;39539;52.202;9.876;2023-01-29T09:07:32;101818.41;;;0.27;100.00
19676;BME280;39539;52.202;9.876;2023-01-29T09:09:57;101809.41;;;0.31;100.00
19676;BME280;39539;52.202;9.876;2023-01-29T09:12:22;101795.66;;;0.16;100.00
19676;BME280;39539;52.202;9.876;2023-01-29T09:14:48;101807.72;;;0.30;100.00
19676;BME280;39539;52.202;9.876;2023-01-29T09:17:13;101807.56;;;0.44;100.00
19676;BME280;39539;52.202;9.876;2023-01-29T09:19:39;101796.16;;;0.46;100.00
19676;BME280;39539;52.202;9.876;2023-01-29T09:22:05;101799.25;;;0.51;100.00
19676;BME280;39539;52.202;9.876;2023-01-29T09:24:30;101801.22;;;0.60;100.00
19676;BME280;39539;52.202;9.876;2023-01-29T09:26:57;101786.84;;;0.65;100.00
19676;BME280;39539;52.202;9.876;2023-01-29T09:29:22;101783.00;;;0.58;100.00
19676;BME280;39539;52.202;9.876;2023-01-29T09:31:47;101767.38;;;0.46;100.00
19676;BME280;39539;52.202;9.876;2023-01-29T09:34:13;101760.28;;;0.59;100.00
19676;BME280;39539;52.202;9.876;2023-01-29T09:36:38;101750.78;;;0.58;100.00
19676;BME280;39539;52.202;9.876;2023-01-29T09:39:03;101761.50;;;0.66;100.00
19676;BME280;39539;52.202;9.876;2023-01-29T09:41:54;101750.06;;;0.67;100.00
19676;BME280;39539;52.202;9.876;2023-01-29T09:47:13;101745.81;;;0.66;100.00
19676;BME280;39539;52.202;9.876;2023-01-29T09:49:44;101751.28;;;0.74;100.00
19676;BME280;39539;52.202;9.876;2023-01-29T09:52:27;101742.75;;;0.83;100.00
19676;BME280;39539;52.202;9.876;2023-01-29T09:55:04;101736.44;;;0.86;100.00
19676;BME280;39539;52.202;9.876;2023-01-29T09:58:04;101731.94;;;0.99;100.00
19676;BME280;39539;52.202;9.876;2023-01-29T10:14:13;101728.94;;;1.49;100.00
19676;BME280;39539;52.202;9.876;2023-01-29T10:19:41;101735.81;;;1.50;100.00
19676;BME280;39539;52.202;9.876;2023-01-29T10:25:05;101731.69;;;1.59;100.00
19676;BME280;39539;52.202;9.876;2023-01-29T10:27:38;101734.28;;;1.59;100.00
19676;BME280;39539;52.202;9.876;2023-01-29T10:30:19;101724.72;;;1.69;100.00
19676;BME280;39539;52.202;9.876;2023-01-29T10:32:46;101714.97;;;1.71;100.00
19676;BME280;39539;52.202;9.876;2023-01-29T10:35:26;101732.81;;;1.77;100.00
19676;BME280;39539;52.202;9.876;2023-01-29T10:37:53;101724.63;;;1.70;100.00
19676;BME280;39539;52.202;9.876;2023-01-29T10:40:28;101729.38;;;1.76;100.00
19676;BME280;39539;52.202;9.876;2023-01-29T10:45:45;101736.03;;;1.69;100.00
19676;BME280;39539;52.202;9.876;2023-01-29T10:48:34;101726.63;;;1.67;100.00
19676;BME280;39539;52.202;9.876;2023-01-29T10:57:41;101697.00;;;1.55;100.00
19676;BME280;39539;52.202;9.876;2023-01-29T11:00:25;101697.16;;;1.53;100.00
19676;BME280;39539;52.202;9.876;2023-01-29T11:02:52;101695.09;;;1.57;100.00
19676;BME280;39539;52.202;9.876;2023-01-29T11:05:32;101681.66;;;1.62;100.00
19676;BME280;39539;52.202;9.876;2023-01-29T11:08:07;101663.19;;;1.52;100.00
19676;BME280;39539;52.202;9.876;2023-01-29T11:10:40;101679.13;;;1.60;100.00
19676;BME280;39539;52.202;9.876;2023-01-29T11:13:13;101672.25;;;1.59;100.00
19676;BME280;39539;52.202;9.876;2023-01-29T11:15:39;101666.16;;;1.59;100.00
19676;BME280;39539;52.202;9.876;2023-01-29T11:18:09;101662.34;;;1.63;100.00
19676;BME280;39539;52.202;9.876;2023-01-29T11:20:38;101651.03;;;1.62;100.00
19676;BME280;39539;52.202;9.876;2023-01-29T11:23:04;101651.94;;;1.72;100.00
19676;BME280;39539;52.202;9.876;2023-01-29T11:25:30;101641.59;;;1.71;100.00
19676;BME280;39539;52.202;9.876;2023-01-29T11:27:59;101641.66;;;1.80;100.00
19676;BME280;39539;52.202;9.876;2023-01-29T11:33:22;101631.13;;;1.92;100.00
19676;BME280;39539;52.202;9.876;2023-01-29T11:35:48;101635.91;;;1.87;100.00
19676;BME280;39539;52.202;9.876;2023-01-29T11:40:45;101624.16;;;2.02;99.90
19676;BME280;39539;52.202;9.876;2023-01-29T11:43:12;101626.72;;;2.13;98.82
19676;BME280;39539;52.202;9.876;2023-01-29T11:45:38;101610.59;;;1.97;98.61
19676;BME280;39539;52.202;9.876;2023-01-29T11:48:12;101608.13;;;1.95;99.56
19676;BME280;39539;52.202;9.876;2023-01-29T11:50:39;101618.47;;;1.97;100.00
19676;BME280;39539;52.202;9.876;2023-01-29T11:53:05;101601.97;;;2.06;100.00
19676;BME280;39539;52.202;9.876;2023-01-29T11:55:34;101595.34;;;2.02;99.02
19676;BME280;39539;52.202;9.876;2023-01-29T11:58:03;101605.03;;;2.11;98.33
19676;BME280;39539;52.202;9.876;2023-01-29T12:00:32;101598.00;;;2.12;99.22
19676;BME280;39539;52.202;9.876;2023-01-29T12:03:06;101595.06;;;2.05;99.73
19676;BME280;39539;52.202;9.876;2023-01-29T12:05:37;101590.97;;;2.12;100.00
19676;BME280;39539;52.202;9.876;2023-01-29T12:08:14;101587.41;;;2.13;99.58
19676;BME280;39539;52.202;9.876;2023-01-29T12:10:41;101565.25;;;2.06;99.66
19676;BME280;39539;52.202;9.876;2023-01-29T12:15:45;101563.09;;;2.11;99.86
19676;BME280;39539;52.202;9.876;2023-01-29T12:18:22;101560.69;;;2.29;99.61
19676;BME280;39539;52.202;9.876;2023-01-29T12:20:56;101554.75;;;2.27;100.00
19676;BME280;39539;52.202;9.876;2023-01-29T12:23:56;101550.06;;;2.31;100.00
19676;BME280;39539;52.202;9.876;2023-01-29T12:26:50;101557.78;;;2.63;96.95
19676;BME280;39539;52.202;9.876;2023-01-29T12:34:44;101543.09;;;2.91;94.66
19676;BME280;39539;52.202;9.876;2023-01-29T12:37:20;101544.34;;;2.87;94.41
19676;BME280;39539;52.202;9.876;2023-01-29T12:39:50;101533.78;;;2.77;95.04
19676;BME280;39539;52.202;9.876;2023-01-29T12:42:20;101532.41;;;2.63;94.97
19676;BME280;39539;52.202;9.876;2023-01-29T12:47:44;101534.28;;;2.52;94.47
19676;BME280;39539;52.202;9.876;2023-01-29T12:50:26;101523.66;;;2.22;97.05
19676;BME280;39539;52.202;9.876;2023-01-29T12:55:59;101532.25;;;2.24;96.66
19676;BME280;39539;52.202;9.876;2023-01-29T12:58:36;101531.53;;;2.22;97.33
19676;BME280;39539;52.202;9.876;2023-01-29T13:01:09;101529.56;;;2.15;97.95
19676;BME280;39539;52.202;9.876;2023-01-29T13:04:17;101518.31;;;2.03;98.13
19676;BME280;39539;52.202;9.876;2023-01-29T13:06:50;101523.66;;;1.92;98.41
19676;BME280;39539;52.202;9.876;2023-01-29T13:09:25;101512.13;;;1.83;100.00
19676;BME280;39539;52.202;9.876;2023-01-29T13:11:57;101499.50;;;1.88;100.00
19676;BME280;39539;52.202;9.876;2023-01-29T13:14:30;101492.34;;;1.90;100.00
19676;BME280;39539;52.202;9.876;2023-01-29T13:17:24;101496.66;;;2.01;98.90
19676;BME280;39539;52.202;9.876;2023-01-29T13:19:56;101500.94;;;2.02;99.76
19676;BME280;39539;52.202;9.876;2023-01-29T13:22:28;101487.13;;;2.00;100.00
19676;BME280;39539;52.202;9.876;2023-01-29T13:24:56;101470.22;;;1.83;99.86
19676;BME280;39539;52.202;9.876;2023-01-29T13:27:27;101473.00;;;1.91;100.00
19676;BME280;39539;52.202;9.876;2023-01-29T13:29:54;101479.56;;;2.07;100.00
19676;BME280;39539;52.202;9.876;2023-01-29T13:32:24;101469.34;;;2.03;100.00
19676;BME280;39539;52.202;9.876;2023-01-29T13:34:53;101466.16;;;2.00;100.00
19676;BME280;39539;52.202;9.876;2023-01-29T13:39:54;101458.69;;;1.95;100.00
19676;BME280;39539;52.202;9.876;2023-01-29T13:42:41;101452.34;;;1.98;100.00
19676;BME280;39539;52.202;9.876;2023-01-29T13:45:18;101437.56;;;1.87;100.00
19676;BME280;39539;52.202;9.876;2023-01-29T13:47:44;101426.34;;;1.85;100.00
19676;BME280;39539;52.202;9.876;2023-01-29T13:50:33;101437.63;;;1.76;100.00
19676;BME280;39539;52.202;9.876;2023-01-29T13:53:02;101421.50;;;1.80;100.00
19676;BME280;39539;52.202;9.876;2023-01-29T13:55:37;101423.09;;;1.93;100.00
19676;BME280;39539;52.202;9.876;2023-01-29T14:00:48;101420.13;;;1.86;100.00
19676;BME280;39539;52.202;9.876;2023-01-29T14:05:40;101408.13;;;1.84;100.00
19676;BME280;39539;52.202;9.876;2023-01-29T14:13:39;101396.56;;;1.86;100.00
19676;BME280;39539;52.202;9.876;2023-01-29T14:18:35;101391.19;;;1.88;100.00
19676;BME280;39539;52.202;9.876;2023-01-29T14:23:47;101384.81;;;1.80;100.00
19676;BME280;39539;52.202;9.876;2023-01-29T14:26:29;101398.16;;;1.77;100.00
19676;BME280;39539;52.202;9.876;2023-01-29T14:29:02;101386.84;;;1.67;100.00
19676;BME280;39539;52.202;9.876;2023-01-29T14:31:39;101389.09;;;1.82;100.00
19676;BME280;39539;52.202;9.876;2023-01-29T14:34:22;101391.03;;;1.79;100.00
19676;BME280;39539;52.202;9.876;2023-01-29T14:36:50;101390.31;;;1.77;100.00
19676;BME280;39539;52.202;9.876;2023-01-29T14:39:43;101386.84;;;1.67;100.00
19676;BME280;39539;52.202;9.876;2023-01-29T14:45:08;101376.34;;;1.67;100.00
19676;BME280;39539;52.202;9.876;2023-01-29T14:50:43;101368.59;;;1.56;100.00
19676;BME280;39539;52.202;9.876;2023-01-29T14:52:50;101365.97;;;1.56;100.00
19676;BME280;39539;52.202;9.876;2023-01-29T14:55:26;101374.31;;;1.50;100.00
19676;BME280;39539;52.202;9.876;2023-01-29T14:57:57;101363.59;;;1.53;100.00